sensor_id;sensor_type;location;lat;lon;timestamp;P1;durP1;ratioP1;P2;durP2;ratioP2
21101;SDS011;10709;49.006;12.100;2024-02-26T00:01:09;22.70;;;14.20;;
21101;SDS011;10709;49.006;12.100;2024-02-26T00:03:39;27.33;;;15.67;;
21101;SDS011;10709;49.006;12.100;2024-02-26T00:06:08;24.37;;;15.37;;
21101;SDS011;10709;49.006;12.100;2024-02-26T00:08:35;23.10;;;14.93;;
21101;SDS011;10709;49.006;12.100;2024-02-26T00:11:02;28.80;;;16.87;;
21101;SDS011;10709;49.006;12.100;2024-02-26T00:13:29;25.13;;;15.20;;
21101;SDS011;10709;49.006;12.100;2024-02-26T00:15:55;28.97;;;16.93;;
21101;SDS011;10709;49.006;12.100;2024-02-26T00:18:22;24.80;;;15.53;;
21101;SDS011;10709;49.006;12.100;2024-02-26T00:20:51;26.13;;;15.90;;
21101;SDS011;10709;49.006;12.100;2024-02-26T00:23:18;26.17;;;15.60;;
21101;SDS011;10709;49.006;12.100;2024-02-26T00:25:46;30.60;;;17.13;;
21101;SDS011;10709;49.006;12.100;2024-02-26T00:28:13;28.17;;;17.17;;
21101;SDS011;10709;49.006;12.100;2024-02-26T00:30:39;28.17;;;17.57;;
21101;SDS011;10709;49.006;12.100;2024-02-26T00:33:06;26.93;;;15.83;;
21101;SDS011;10709;49.006;12.100;2024-02-26T00:35:33;29.77;;;17.13;;
21101;SDS011;10709;49.006;12.100;2024-02-26T00:38:02;31.00;;;16.27;;
21101;SDS011;10709;49.006;12.100;2024-02-26T00:40:29;26.07;;;16.07;;
21101;SDS011;10709;49.006;12.100;2024-02-26T00:42:56;23.73;;;15.80;;
21101;SDS011;10709;49.006;12.100;2024-02-26T00:45:25;29.17;;;16.70;;
21101;SDS011;10709;49.006;12.100;2024-02-26T00:47:51;26.60;;;16.17;;
21101;SDS011;10709;49.006;12.100;2024-02-26T00:50:18;28.33;;;17.40;;
21101;SDS011;10709;49.006;12.100;2024-02-26T00:52:44;27.13;;;16.10;;
21101;SDS011;10709;49.006;12.100;2024-02-26T00:55:11;26.20;;;15.87;;
21101;SDS011;10709;49.006;12.100;2024-02-26T00:57:37;27.87;;;16.47;;
21101;SDS011;10709;49.006;12.100;2024-02-26T01:00:04;28.30;;;16.10;;
21101;SDS011;10709;49.006;12.100;2024-02-26T01:02:31;27.43;;;16.17;;
21101;SDS011;10709;49.006;12.100;2024-02-26T01:04:58;28.90;;;16.07;;
21101;SDS011;10709;49.006;12.100;2024-02-26T01:07:24;28.37;;;16.67;;
21101;SDS011;10709;49.006;12.100;2024-02-26T01:09:54;25.80;;;15.03;;
21101;SDS011;10709;49.006;12.100;2024-02-26T01:12:20;30.97;;;17.53;;
21101;SDS011;10709;49.006;12.100;2024-02-26T01:14:47;28.70;;;17.63;;
21101;SDS011;10709;49.006;12.100;2024-02-26T01:17:15;25.60;;;15.70;;
21101;SDS011;10709;49.006;12.100;2024-02-26T01:19:42;25.30;;;15.20;;
21101;SDS011;10709;49.006;12.100;2024-02-26T01:22:09;27.83;;;16.73;;
21101;SDS011;10709;49.006;12.100;2024-02-26T01:24:35;25.50;;;15.50;;
21101;SDS011;10709;49.006;12.100;2024-02-26T01:27:02;27.00;;;15.67;;
21101;SDS011;10709;49.006;12.100;2024-02-26T01:29:29;25.77;;;15.40;;
21101;SDS011;10709;49.006;12.100;2024-02-26T01:31:55;26.17;;;15.07;;
21101;SDS011;10709;49.006;12.100;2024-02-26T01:34:22;24.50;;;14.20;;
21101;SDS011;10709;49.006;12.100;2024-02-26T01:36:49;26.07;;;15.10;;
21101;SDS011;10709;49.006;12.100;2024-02-26T01:39:15;25.40;;;15.93;;
21101;SDS011;10709;49.006;12.100;2024-02-26T01:41:42;23.30;;;13.90;;
21101;SDS011;10709;49.006;12.100;2024-02-26T01:44:11;27.33;;;15.20;;
21101;SDS011;10709;49.006;12.100;2024-02-26T01:46:39;24.23;;;14.23;;
21101;SDS011;10709;49.006;12.100;2024-02-26T01:49:06;22.10;;;13.93;;
21101;SDS011;10709;49.006;12.100;2024-02-26T01:51:35;23.93;;;13.77;;
21101;SDS011;10709;49.006;12.100;2024-02-26T01:54:02;24.87;;;14.63;;
21101;SDS011;10709;49.006;12.100;2024-02-26T01:56:30;25.20;;;15.43;;
21101;SDS011;10709;49.006;12.100;2024-02-26T02:06:52;21.23;;;13.17;;
21101;SDS011;10709;49.006;12.100;2024-02-26T02:17:46;19.07;;;12.50;;
21101;SDS011;10709;49.006;12.100;2024-02-26T02:21:35;22.83;;;12.70;;
21101;SDS011;10709;49.006;12.100;2024-02-26T02:41:38;18.10;;;10.03;;
21101;SDS011;10709;49.006;12.100;2024-02-26T02:45:28;13.97;;;8.87;;
21101;SDS011;10709;49.006;12.100;2024-02-26T03:09:35;12.77;;;7.77;;
21101;SDS011;10709;49.006;12.100;2024-02-26T03:13:23;11.13;;;7.37;;
21101;SDS011;10709;49.006;12.100;2024-02-26T03:21:04;12.30;;;8.03;;
21101;SDS011;10709;49.006;12.100;2024-02-26T03:25:07;12.53;;;8.10;;
21101;SDS011;10709;49.006;12.100;2024-02-26T03:32:35;11.30;;;7.27;;
21101;SDS011;10709;49.006;12.100;2024-02-26T03:48:25;9.50;;;5.80;;
21101;SDS011;10709;49.006;12.100;2024-02-26T03:55:22;8.63;;;6.00;;
21101;SDS011;10709;49.006;12.100;2024-02-26T03:59:33;8.60;;;5.60;;
21101;SDS011;10709;49.006;12.100;2024-02-26T04:03:20;8.20;;;5.40;;
21101;SDS011;10709;49.006;12.100;2024-02-26T04:07:15;10.43;;;6.23;;
21101;SDS011;10709;49.006;12.100;2024-02-26T04:14:59;7.20;;;5.47;;
21101;SDS011;10709;49.006;12.100;2024-02-26T04:18:59;11.27;;;7.57;;
21101;SDS011;10709;49.006;12.100;2024-02-26T04:22:59;11.43;;;7.57;;
21101;SDS011;10709;49.006;12.100;2024-02-26T04:34:51;7.27;;;5.60;;
21101;SDS011;10709;49.006;12.100;2024-02-26T04:42:25;9.30;;;5.43;;
21101;SDS011;10709;49.006;12.100;2024-02-26T04:45:56;10.30;;;6.70;;
21101;SDS011;10709;49.006;12.100;2024-02-26T04:49:59;8.50;;;5.70;;
21101;SDS011;10709;49.006;12.100;2024-02-26T04:53:53;8.67;;;5.23;;
21101;SDS011;10709;49.006;12.100;2024-02-26T05:01:55;7.77;;;4.97;;
21101;SDS011;10709;49.006;12.100;2024-02-26T05:13:21;6.73;;;5.10;;
21101;SDS011;10709;49.006;12.100;2024-02-26T05:17:18;6.83;;;5.00;;
21101;SDS011;10709;49.006;12.100;2024-02-26T05:30:54;8.07;;;5.57;;
21101;SDS011;10709;49.006;12.100;2024-02-26T05:33:22;9.00;;;5.53;;
21101;SDS011;10709;49.006;12.100;2024-02-26T05:35:50;8.13;;;5.63;;
21101;SDS011;10709;49.006;12.100;2024-02-26T05:38:17;9.47;;;5.97;;
21101;SDS011;10709;49.006;12.100;2024-02-26T05:40:44;8.40;;;5.73;;
21101;SDS011;10709;49.006;12.100;2024-02-26T05:43:12;10.00;;;6.10;;
21101;SDS011;10709;49.006;12.100;2024-02-26T05:45:41;11.73;;;6.27;;
21101;SDS011;10709;49.006;12.100;2024-02-26T05:48:08;14.70;;;7.60;;
21101;SDS011;10709;49.006;12.100;2024-02-26T05:50:35;13.17;;;8.00;;
21101;SDS011;10709;49.006;12.100;2024-02-26T05:53:01;10.70;;;7.67;;
21101;SDS011;10709;49.006;12.100;2024-02-26T05:55:30;17.60;;;10.97;;
21101;SDS011;10709;49.006;12.100;2024-02-26T05:57:57;13.53;;;9.00;;
21101;SDS011;10709;49.006;12.100;2024-02-26T06:00:23;14.10;;;8.70;;
21101;SDS011;10709;49.006;12.100;2024-02-26T06:02:50;13.97;;;8.83;;
21101;SDS011;10709;49.006;12.100;2024-02-26T06:05:17;15.10;;;9.70;;
21101;SDS011;10709;49.006;12.100;2024-02-26T06:07:44;16.70;;;9.00;;
21101;SDS011;10709;49.006;12.100;2024-02-26T06:10:14;18.47;;;10.10;;
21101;SDS011;10709;49.006;12.100;2024-02-26T06:12:41;16.97;;;10.67;;
21101;SDS011;10709;49.006;12.100;2024-02-26T06:15:07;13.43;;;8.57;;
21101;SDS011;10709;49.006;12.100;2024-02-26T06:17:35;12.13;;;7.70;;
21101;SDS011;10709;49.006;12.100;2024-02-26T06:20:02;13.77;;;7.23;;
21101;SDS011;10709;49.006;12.100;2024-02-26T06:22:30;10.40;;;6.50;;
21101;SDS011;10709;49.006;12.100;2024-02-26T06:24:59;10.13;;;6.77;;
21101;SDS011;10709;49.006;12.100;2024-02-26T06:27:28;8.83;;;6.07;;
21101;SDS011;10709;49.006;12.100;2024-02-26T06:29:54;10.93;;;6.30;;
21101;SDS011;10709;49.006;12.100;2024-02-26T06:32:23;10.30;;;6.10;;
21101;SDS011;10709;49.006;12.100;2024-02-26T06:34:49;11.67;;;6.63;;
21101;SDS011;10709;49.006;12.100;2024-02-26T06:37:16;10.13;;;5.87;;
21101;SDS011;10709;49.006;12.100;2024-02-26T06:39:44;11.37;;;6.60;;
21101;SDS011;10709;49.006;12.100;2024-02-26T06:42:11;12.30;;;6.70;;
21101;SDS011;10709;49.006;12.100;2024-02-26T06:44:38;9.73;;;6.10;;
21101;SDS011;10709;49.006;12.100;2024-02-26T06:47:05;12.00;;;6.20;;
21101;SDS011;10709;49.006;12.100;2024-02-26T06:49:32;9.63;;;6.33;;
21101;SDS011;10709;49.006;12.100;2024-02-26T06:51:59;11.70;;;5.97;;
21101;SDS011;10709;49.006;12.100;2024-02-26T06:54:26;8.97;;;6.10;;
21101;SDS011;10709;49.006;12.100;2024-02-26T06:56:54;7.70;;;5.57;;
21101;SDS011;10709;49.006;12.100;2024-02-26T06:59:21;7.90;;;5.77;;
21101;SDS011;10709;49.006;12.100;2024-02-26T07:01:50;8.60;;;5.60;;
21101;SDS011;10709;49.006;12.100;2024-02-26T07:04:17;9.30;;;6.00;;
21101;SDS011;10709;49.006;12.100;2024-02-26T07:06:44;9.77;;;6.27;;
21101;SDS011;10709;49.006;12.100;2024-02-26T07:09:13;6.90;;;4.83;;
21101;SDS011;10709;49.006;12.100;2024-02-26T07:11:40;9.73;;;5.70;;
21101;SDS011;10709;49.006;12.100;2024-02-26T07:14:09;8.10;;;5.47;;
21101;SDS011;10709;49.006;12.100;2024-02-26T07:16:37;13.33;;;6.20;;
21101;SDS011;10709;49.006;12.100;2024-02-26T07:19:04;10.63;;;6.30;;
21101;SDS011;10709;49.006;12.100;2024-02-26T07:21:31;11.13;;;6.33;;
21101;SDS011;10709;49.006;12.100;2024-02-26T07:23:58;10.73;;;6.30;;
21101;SDS011;10709;49.006;12.100;2024-02-26T07:26:25;10.57;;;6.90;;
21101;SDS011;10709;49.006;12.100;2024-02-26T07:28:52;9.40;;;5.90;;
21101;SDS011;10709;49.006;12.100;2024-02-26T07:31:18;13.07;;;7.00;;
21101;SDS011;10709;49.006;12.100;2024-02-26T07:33:46;12.40;;;7.43;;
21101;SDS011;10709;49.006;12.100;2024-02-26T07:36:13;10.17;;;7.00;;
21101;SDS011;10709;49.006;12.100;2024-02-26T07:38:40;11.00;;;5.93;;
21101;SDS011;10709;49.006;12.100;2024-02-26T07:41:09;10.57;;;6.00;;
21101;SDS011;10709;49.006;12.100;2024-02-26T07:43:36;10.27;;;6.30;;
21101;SDS011;10709;49.006;12.100;2024-02-26T07:46:03;10.00;;;6.43;;
21101;SDS011;10709;49.006;12.100;2024-02-26T07:48:30;10.10;;;6.50;;
21101;SDS011;10709;49.006;12.100;2024-02-26T07:51:01;10.37;;;6.47;;
21101;SDS011;10709;49.006;12.100;2024-02-26T07:58:50;10.53;;;6.23;;
21101;SDS011;10709;49.006;12.100;2024-02-26T08:01:18;9.37;;;6.90;;
21101;SDS011;10709;49.006;12.100;2024-02-26T08:03:45;11.30;;;6.53;;
21101;SDS011;10709;49.006;12.100;2024-02-26T08:06:12;10.37;;;6.30;;
21101;SDS011;10709;49.006;12.100;2024-02-26T08:08:39;8.80;;;6.10;;
21101;SDS011;10709;49.006;12.100;2024-02-26T08:11:06;9.23;;;5.70;;
21101;SDS011;10709;49.006;12.100;2024-02-26T08:13:34;10.93;;;5.67;;
21101;SDS011;10709;49.006;12.100;2024-02-26T08:16:02;10.17;;;5.93;;
21101;SDS011;10709;49.006;12.100;2024-02-26T08:18:29;10.30;;;6.13;;
21101;SDS011;10709;49.006;12.100;2024-02-26T08:20:55;8.73;;;6.00;;
21101;SDS011;10709;49.006;12.100;2024-02-26T08:23:22;9.27;;;5.97;;
21101;SDS011;10709;49.006;12.100;2024-02-26T08:25:49;7.10;;;5.30;;
21101;SDS011;10709;49.006;12.100;2024-02-26T08:28:15;8.70;;;5.87;;
21101;SDS011;10709;49.006;12.100;2024-02-26T08:30:44;9.33;;;5.67;;
21101;SDS011;10709;49.006;12.100;2024-02-26T08:33:11;7.60;;;5.23;;
21101;SDS011;10709;49.006;12.100;2024-02-26T08:35:40;9.10;;;5.20;;
21101;SDS011;10709;49.006;12.100;2024-02-26T08:38:07;8.77;;;5.50;;
21101;SDS011;10709;49.006;12.100;2024-02-26T08:40:33;9.43;;;6.00;;
21101;SDS011;10709;49.006;12.100;2024-02-26T08:43:01;10.33;;;5.90;;
21101;SDS011;10709;49.006;12.100;2024-02-26T08:45:27;8.33;;;5.87;;
21101;SDS011;10709;49.006;12.100;2024-02-26T08:47:56;8.03;;;5.77;;
21101;SDS011;10709;49.006;12.100;2024-02-26T08:50:22;8.30;;;5.70;;
21101;SDS011;10709;49.006;12.100;2024-02-26T08:52:49;7.57;;;5.63;;
21101;SDS011;10709;49.006;12.100;2024-02-26T08:55:17;8.40;;;5.40;;
21101;SDS011;10709;49.006;12.100;2024-02-26T08:57:47;9.40;;;5.57;;
21101;SDS011;10709;49.006;12.100;2024-02-26T09:00:14;9.43;;;6.07;;
21101;SDS011;10709;49.006;12.100;2024-02-26T09:02:42;8.67;;;5.77;;
21101;SDS011;10709;49.006;12.100;2024-02-26T09:05:10;11.27;;;6.50;;
21101;SDS011;10709;49.006;12.100;2024-02-26T09:07:38;10.50;;;5.90;;
21101;SDS011;10709;49.006;12.100;2024-02-26T09:10:05;8.80;;;5.90;;
21101;SDS011;10709;49.006;12.100;2024-02-26T09:12:35;8.27;;;5.73;;
21101;SDS011;10709;49.006;12.100;2024-02-26T09:15:02;10.60;;;6.20;;
21101;SDS011;10709;49.006;12.100;2024-02-26T09:17:29;11.57;;;5.87;;
21101;SDS011;10709;49.006;12.100;2024-02-26T09:19:56;8.00;;;4.73;;
21101;SDS011;10709;49.006;12.100;2024-02-26T09:22:23;6.80;;;4.57;;
21101;SDS011;10709;49.006;12.100;2024-02-26T09:24:50;8.17;;;4.90;;
21101;SDS011;10709;49.006;12.100;2024-02-26T09:27:21;6.03;;;4.50;;
21101;SDS011;10709;49.006;12.100;2024-02-26T09:29:50;5.67;;;3.80;;
21101;SDS011;10709;49.006;12.100;2024-02-26T09:32:18;6.07;;;3.70;;
21101;SDS011;10709;49.006;12.100;2024-02-26T09:34:45;7.57;;;3.97;;
21101;SDS011;10709;49.006;12.100;2024-02-26T09:37:12;8.60;;;3.67;;
21101;SDS011;10709;49.006;12.100;2024-02-26T09:39:48;6.23;;;4.00;;
21101;SDS011;10709;49.006;12.100;2024-02-26T09:42:20;11.17;;;4.00;;
21101;SDS011;10709;49.006;12.100;2024-02-26T09:44:53;8.57;;;3.70;;
21101;SDS011;10709;49.006;12.100;2024-02-26T09:47:23;6.23;;;3.50;;
21101;SDS011;10709;49.006;12.100;2024-02-26T09:49:53;8.70;;;3.57;;
21101;SDS011;10709;49.006;12.100;2024-02-26T09:52:23;8.50;;;3.67;;
21101;SDS011;10709;49.006;12.100;2024-02-26T09:54:50;9.23;;;3.80;;
21101;SDS011;10709;49.006;12.100;2024-02-26T09:57:17;8.63;;;3.60;;
21101;SDS011;10709;49.006;12.100;2024-02-26T09:59:46;6.83;;;3.10;;
21101;SDS011;10709;49.006;12.100;2024-02-26T10:02:17;8.20;;;3.30;;
21101;SDS011;10709;49.006;12.100;2024-02-26T10:04:45;10.63;;;3.20;;
21101;SDS011;10709;49.006;12.100;2024-02-26T10:07:17;6.00;;;3.23;;
21101;SDS011;10709;49.006;12.100;2024-02-26T10:09:47;6.97;;;3.20;;
21101;SDS011;10709;49.006;12.100;2024-02-26T10:12:14;6.10;;;3.03;;
21101;SDS011;10709;49.006;12.100;2024-02-26T10:14:43;5.60;;;2.87;;
21101;SDS011;10709;49.006;12.100;2024-02-26T10:17:11;5.47;;;3.00;;
21101;SDS011;10709;49.006;12.100;2024-02-26T10:19:41;3.67;;;2.70;;
21101;SDS011;10709;49.006;12.100;2024-02-26T10:22:07;3.87;;;2.77;;
21101;SDS011;10709;49.006;12.100;2024-02-26T10:24:35;5.60;;;2.60;;
21101;SDS011;10709;49.006;12.100;2024-02-26T10:27:03;5.27;;;2.83;;
21101;SDS011;10709;49.006;12.100;2024-02-26T10:29:31;3.80;;;2.83;;
21101;SDS011;10709;49.006;12.100;2024-02-26T10:31:58;5.93;;;3.10;;
21101;SDS011;10709;49.006;12.100;2024-02-26T10:34:24;6.50;;;3.13;;
21101;SDS011;10709;49.006;12.100;2024-02-26T10:36:52;5.13;;;2.57;;
21101;SDS011;10709;49.006;12.100;2024-02-26T10:39:20;5.07;;;2.70;;
21101;SDS011;10709;49.006;12.100;2024-02-26T10:41:48;7.00;;;2.40;;
21101;SDS011;10709;49.006;12.100;2024-02-26T10:44:16;4.70;;;2.40;;
21101;SDS011;10709;49.006;12.100;2024-02-26T10:46:46;3.37;;;2.50;;
21101;SDS011;10709;49.006;12.100;2024-02-26T10:49:15;3.43;;;2.53;;
21101;SDS011;10709;49.006;12.100;2024-02-26T10:51:45;4.20;;;2.47;;
21101;SDS011;10709;49.006;12.100;2024-02-26T10:54:24;3.80;;;2.13;;
21101;SDS011;10709;49.006;12.100;2024-02-26T10:56:55;5.00;;;2.30;;
21101;SDS011;10709;49.006;12.100;2024-02-26T10:59:28;4.43;;;2.37;;
21101;SDS011;10709;49.006;12.100;2024-02-26T11:01:56;2.90;;;2.20;;
21101;SDS011;10709;49.006;12.100;2024-02-26T11:04:24;4.07;;;2.17;;
21101;SDS011;10709;49.006;12.100;2024-02-26T11:06:54;3.80;;;2.30;;
21101;SDS011;10709;49.006;12.100;2024-02-26T11:09:23;3.57;;;2.50;;
21101;SDS011;10709;49.006;12.100;2024-02-26T11:11:52;3.53;;;2.10;;
21101;SDS011;10709;49.006;12.100;2024-02-26T11:14:21;4.23;;;2.10;;
21101;SDS011;10709;49.006;12.100;2024-02-26T11:16:48;4.13;;;2.23;;
21101;SDS011;10709;49.006;12.100;2024-02-26T11:19:19;4.37;;;2.13;;
21101;SDS011;10709;49.006;12.100;2024-02-26T11:21:46;4.20;;;2.00;;
21101;SDS011;10709;49.006;12.100;2024-02-26T11:24:14;3.93;;;2.00;;
21101;SDS011;10709;49.006;12.100;2024-02-26T11:26:46;6.07;;;2.03;;
21101;SDS011;10709;49.006;12.100;2024-02-26T11:29:17;3.60;;;2.03;;
21101;SDS011;10709;49.006;12.100;2024-02-26T11:31:47;3.00;;;2.00;;
21101;SDS011;10709;49.006;12.100;2024-02-26T11:34:14;2.60;;;1.90;;
21101;SDS011;10709;49.006;12.100;2024-02-26T11:36:41;3.77;;;1.73;;
21101;SDS011;10709;49.006;12.100;2024-02-26T11:39:09;4.17;;;2.00;;
21101;SDS011;10709;49.006;12.100;2024-02-26T11:41:38;3.67;;;1.90;;
21101;SDS011;10709;49.006;12.100;2024-02-26T11:44:07;4.43;;;2.10;;
21101;SDS011;10709;49.006;12.100;2024-02-26T11:46:46;3.23;;;2.20;;
21101;SDS011;10709;49.006;12.100;2024-02-26T11:51:51;3.33;;;2.00;;
21101;SDS011;10709;49.006;12.100;2024-02-26T11:54:38;3.90;;;2.00;;
21101;SDS011;10709;49.006;12.100;2024-02-26T11:57:24;3.87;;;1.97;;
21101;SDS011;10709;49.006;12.100;2024-02-26T12:00:10;3.40;;;2.00;;
21101;SDS011;10709;49.006;12.100;2024-02-26T12:02:52;4.30;;;2.00;;
21101;SDS011;10709;49.006;12.100;2024-02-26T12:05:32;4.90;;;2.10;;
21101;SDS011;10709;49.006;12.100;2024-02-26T12:08:00;3.83;;;1.73;;
21101;SDS011;10709;49.006;12.100;2024-02-26T12:10:35;3.83;;;1.77;;
21101;SDS011;10709;49.006;12.100;2024-02-26T12:13:07;4.57;;;1.70;;
21101;SDS011;10709;49.006;12.100;2024-02-26T12:19:40;4.37;;;2.07;;
21101;SDS011;10709;49.006;12.100;2024-02-26T12:27:13;3.10;;;2.10;;
21101;SDS011;10709;49.006;12.100;2024-02-26T12:37:48;4.80;;;2.23;;
21101;SDS011;10709;49.006;12.100;2024-02-26T12:40:18;3.53;;;2.00;;
21101;SDS011;10709;49.006;12.100;2024-02-26T12:42:45;5.07;;;2.10;;
21101;SDS011;10709;49.006;12.100;2024-02-26T12:45:13;5.10;;;2.20;;
21101;SDS011;10709;49.006;12.100;2024-02-26T12:47:42;2.57;;;1.70;;
21101;SDS011;10709;49.006;12.100;2024-02-26T12:50:10;3.77;;;2.27;;
21101;SDS011;10709;49.006;12.100;2024-02-26T12:52:45;3.07;;;1.90;;
21101;SDS011;10709;49.006;12.100;2024-02-26T12:55:13;3.10;;;1.87;;
21101;SDS011;10709;49.006;12.100;2024-02-26T12:57:42;3.17;;;1.60;;
21101;SDS011;10709;49.006;12.100;2024-02-26T13:00:11;3.37;;;1.70;;
21101;SDS011;10709;49.006;12.100;2024-02-26T13:02:41;2.57;;;1.87;;
21101;SDS011;10709;49.006;12.100;2024-02-26T13:05:11;4.80;;;1.50;;
21101;SDS011;10709;49.006;12.100;2024-02-26T13:07:41;3.53;;;2.07;;
21101;SDS011;10709;49.006;12.100;2024-02-26T13:10:10;4.37;;;1.80;;
21101;SDS011;10709;49.006;12.100;2024-02-26T13:12:47;3.87;;;1.30;;
21101;SDS011;10709;49.006;12.100;2024-02-26T13:15:17;2.93;;;1.47;;
21101;SDS011;10709;49.006;12.100;2024-02-26T13:17:45;5.07;;;1.50;;
21101;SDS011;10709;49.006;12.100;2024-02-26T13:20:13;2.00;;;1.27;;
21101;SDS011;10709;49.006;12.100;2024-02-26T13:43:08;1.60;;;1.13;;
21101;SDS011;10709;49.006;12.100;2024-02-26T13:45:39;1.40;;;0.83;;
21101;SDS011;10709;49.006;12.100;2024-02-26T13:48:07;2.03;;;0.70;;
21101;SDS011;10709;49.006;12.100;2024-02-26T13:50:39;3.07;;;1.10;;
21101;SDS011;10709;49.006;12.100;2024-02-26T14:01:18;1.00;;;0.70;;
21101;SDS011;10709;49.006;12.100;2024-02-26T14:03:45;1.00;;;0.80;;
21101;SDS011;10709;49.006;12.100;2024-02-26T14:06:12;1.10;;;0.60;;
21101;SDS011;10709;49.006;12.100;2024-02-26T14:08:40;1.30;;;0.67;;
21101;SDS011;10709;49.006;12.100;2024-02-26T14:11:07;0.67;;;0.63;;
21101;SDS011;10709;49.006;12.100;2024-02-26T14:13:33;1.03;;;0.70;;
21101;SDS011;10709;49.006;12.100;2024-02-26T14:16:04;1.03;;;0.80;;
21101;SDS011;10709;49.006;12.100;2024-02-26T14:18:30;1.20;;;0.80;;
21101;SDS011;10709;49.006;12.100;2024-02-26T14:20:57;1.70;;;1.10;;
21101;SDS011;10709;49.006;12.100;2024-02-26T14:23:24;1.93;;;1.60;;
21101;SDS011;10709;49.006;12.100;2024-02-26T14:25:50;4.10;;;2.20;;
21101;SDS011;10709;49.006;12.100;2024-02-26T14:28:16;5.07;;;3.00;;
21101;SDS011;10709;49.006;12.100;2024-02-26T14:30:50;5.63;;;3.80;;
21101;SDS011;10709;49.006;12.100;2024-02-26T14:33:17;6.77;;;4.37;;
21101;SDS011;10709;49.006;12.100;2024-02-26T14:35:43;6.03;;;3.90;;
21101;SDS011;10709;49.006;12.100;2024-02-26T14:38:10;6.17;;;4.00;;
21101;SDS011;10709;49.006;12.100;2024-02-26T14:40:38;6.37;;;4.20;;
21101;SDS011;10709;49.006;12.100;2024-02-26T14:43:04;5.57;;;3.90;;
21101;SDS011;10709;49.006;12.100;2024-02-26T14:45:31;5.80;;;4.07;;
21101;SDS011;10709;49.006;12.100;2024-02-26T14:47:58;5.67;;;4.20;;
21101;SDS011;10709;49.006;12.100;2024-02-26T14:50:25;6.80;;;4.03;;
21101;SDS011;10709;49.006;12.100;2024-02-26T14:52:51;6.20;;;4.17;;
21101;SDS011;10709;49.006;12.100;2024-02-26T14:55:18;5.43;;;4.33;;
21101;SDS011;10709;49.006;12.100;2024-02-26T14:57:44;7.27;;;4.70;;
21101;SDS011;10709;49.006;12.100;2024-02-26T15:00:11;6.17;;;4.50;;
21101;SDS011;10709;49.006;12.100;2024-02-26T15:02:38;7.70;;;5.03;;
21101;SDS011;10709;49.006;12.100;2024-02-26T15:05:04;7.00;;;5.30;;
21101;SDS011;10709;49.006;12.100;2024-02-26T15:07:33;7.90;;;5.30;;
21101;SDS011;10709;49.006;12.100;2024-02-26T15:10:00;8.27;;;5.23;;
21101;SDS011;10709;49.006;12.100;2024-02-26T15:12:27;9.13;;;6.00;;
21101;SDS011;10709;49.006;12.100;2024-02-26T15:14:54;8.07;;;5.40;;
21101;SDS011;10709;49.006;12.100;2024-02-26T15:17:20;9.83;;;5.93;;
21101;SDS011;10709;49.006;12.100;2024-02-26T15:19:47;8.10;;;5.57;;
21101;SDS011;10709;49.006;12.100;2024-02-26T15:22:13;7.33;;;5.60;;
21101;SDS011;10709;49.006;12.100;2024-02-26T15:24:39;7.73;;;5.90;;
21101;SDS011;10709;49.006;12.100;2024-02-26T15:27:06;9.70;;;6.33;;
21101;SDS011;10709;49.006;12.100;2024-02-26T15:29:33;9.67;;;5.83;;
21101;SDS011;10709;49.006;12.100;2024-02-26T15:31:59;8.83;;;6.10;;
21101;SDS011;10709;49.006;12.100;2024-02-26T15:34:25;7.87;;;6.27;;
21101;SDS011;10709;49.006;12.100;2024-02-26T15:36:52;9.13;;;6.63;;
21101;SDS011;10709;49.006;12.100;2024-02-26T15:39:19;9.40;;;6.90;;
21101;SDS011;10709;49.006;12.100;2024-02-26T15:41:47;11.00;;;7.30;;
21101;SDS011;10709;49.006;12.100;2024-02-26T15:44:14;10.80;;;7.40;;
21101;SDS011;10709;49.006;12.100;2024-02-26T15:46:40;10.40;;;6.77;;
21101;SDS011;10709;49.006;12.100;2024-02-26T15:49:07;10.30;;;7.30;;
21101;SDS011;10709;49.006;12.100;2024-02-26T15:51:39;10.17;;;7.60;;
21101;SDS011;10709;49.006;12.100;2024-02-26T15:54:05;10.43;;;7.23;;
21101;SDS011;10709;49.006;12.100;2024-02-26T15:56:32;9.90;;;7.03;;
21101;SDS011;10709;49.006;12.100;2024-02-26T15:58:59;10.33;;;7.37;;
21101;SDS011;10709;49.006;12.100;2024-02-26T16:01:25;12.00;;;7.60;;
21101;SDS011;10709;49.006;12.100;2024-02-26T16:03:54;10.03;;;7.30;;
21101;SDS011;10709;49.006;12.100;2024-02-26T16:07:08;10.17;;;7.20;;
21101;SDS011;10709;49.006;12.100;2024-02-26T16:09:16;10.63;;;7.13;;
21101;SDS011;10709;49.006;12.100;2024-02-26T16:11:43;11.07;;;8.03;;
21101;SDS011;10709;49.006;12.100;2024-02-26T16:17:02;12.73;;;9.77;;
21101;SDS011;10709;49.006;12.100;2024-02-26T16:19:36;12.47;;;9.27;;
21101;SDS011;10709;49.006;12.100;2024-02-26T16:22:04;14.10;;;8.97;;
21101;SDS011;10709;49.006;12.100;2024-02-26T16:24:31;12.03;;;8.50;;
21101;SDS011;10709;49.006;12.100;2024-02-26T16:26:59;18.47;;;11.50;;
21101;SDS011;10709;49.006;12.100;2024-02-26T16:29:25;14.00;;;9.50;;
21101;SDS011;10709;49.006;12.100;2024-02-26T16:31:52;11.73;;;8.70;;
21101;SDS011;10709;49.006;12.100;2024-02-26T16:34:18;16.33;;;9.80;;
21101;SDS011;10709;49.006;12.100;2024-02-26T16:36:45;13.03;;;10.03;;
21101;SDS011;10709;49.006;12.100;2024-02-26T16:39:11;14.40;;;10.67;;
21101;SDS011;10709;49.006;12.100;2024-02-26T16:41:38;14.57;;;11.00;;
21101;SDS011;10709;49.006;12.100;2024-02-26T16:44:05;16.27;;;10.63;;
21101;SDS011;10709;49.006;12.100;2024-02-26T16:46:31;15.80;;;11.03;;
21101;SDS011;10709;49.006;12.100;2024-02-26T16:48:59;14.70;;;10.33;;
21101;SDS011;10709;49.006;12.100;2024-02-26T16:51:29;17.43;;;11.30;;
21101;SDS011;10709;49.006;12.100;2024-02-26T16:53:55;16.13;;;11.10;;
21101;SDS011;10709;49.006;12.100;2024-02-26T16:56:22;18.83;;;11.83;;
21101;SDS011;10709;49.006;12.100;2024-02-26T16:58:48;15.80;;;11.07;;
21101;SDS011;10709;49.006;12.100;2024-02-26T17:01:14;16.80;;;11.50;;
21101;SDS011;10709;49.006;12.100;2024-02-26T17:03:41;17.13;;;11.67;;
21101;SDS011;10709;49.006;12.100;2024-02-26T17:06:09;17.47;;;11.57;;
21101;SDS011;10709;49.006;12.100;2024-02-26T17:08:36;19.97;;;13.10;;
21101;SDS011;10709;49.006;12.100;2024-02-26T17:11:03;17.07;;;11.20;;
21101;SDS011;10709;49.006;12.100;2024-02-26T17:13:30;18.20;;;12.10;;
21101;SDS011;10709;49.006;12.100;2024-02-26T17:15:57;18.23;;;12.80;;
21101;SDS011;10709;49.006;12.100;2024-02-26T17:18:23;20.90;;;11.97;;
21101;SDS011;10709;49.006;12.100;2024-02-26T17:20:50;18.20;;;12.60;;
21101;SDS011;10709;49.006;12.100;2024-02-26T17:23:16;17.17;;;12.60;;
21101;SDS011;10709;49.006;12.100;2024-02-26T17:25:43;19.40;;;12.70;;
21101;SDS011;10709;49.006;12.100;2024-02-26T17:28:09;20.63;;;13.33;;
21101;SDS011;10709;49.006;12.100;2024-02-26T17:30:37;18.87;;;13.00;;
21101;SDS011;10709;49.006;12.100;2024-02-26T17:33:06;17.50;;;12.20;;
21101;SDS011;10709;49.006;12.100;2024-02-26T17:35:32;20.77;;;12.13;;
21101;SDS011;10709;49.006;12.100;2024-02-26T17:37:59;16.20;;;11.60;;
21101;SDS011;10709;49.006;12.100;2024-02-26T17:40:27;17.77;;;11.80;;
21101;SDS011;10709;49.006;12.100;2024-02-26T17:42:54;17.70;;;11.37;;
21101;SDS011;10709;49.006;12.100;2024-02-26T17:45:21;19.43;;;11.87;;
21101;SDS011;10709;49.006;12.100;2024-02-26T17:47:50;17.60;;;11.13;;
21101;SDS011;10709;49.006;12.100;2024-02-26T17:50:17;18.60;;;12.40;;
21101;SDS011;10709;49.006;12.100;2024-02-26T17:52:44;18.13;;;11.90;;
21101;SDS011;10709;49.006;12.100;2024-02-26T17:55:11;17.97;;;12.37;;